KAMW

Ames Municipal Airport

Ames, Iowa, USA
METAR KAMW 172353Z AUTO 00000KT 10SM CLR 08/M02 A3045 RMK AO2 SLP315 T00781017 10128 20078 53003
Observed Flight Rules
Oct-17 @ 23:53 UTC (51 minutes ago) Visual Flight Rules
Visibility Clouds
10 miles
  • Clear skies
Temperatures Readings
Current 8°C / 46°F
Dewpoint -2°C / 28°F
Humidity 50%
Altimeter 30.45" Hg
Pressure 1031.5 hPa
Elevation 279
METAR KAMW 172353Z AUTO 00000KT 10SM CLR 08/M02 A3045 RMK AO2 SLP315 T00781017 10128 20078 53003
Observed Flight Rules
Oct-17 @ 23:53 UTC
(51 minutes ago)
VFR
Clouds
  • Clear skies
Temperature Dewpoint
8°C / 46°F -2°C / 28°F
Humidity Altimeter Pressure
50% 30.45" Hg 1031.5 hPa